sensor_id;sensor_type;location;lat;lon;timestamp;temperature;humidity
35559;DHT22;21661;50.794;-1.066;2023-04-06T00:01:20;10.00;99.90
35559;DHT22;21661;50.794;-1.066;2023-04-06T00:03:45;10.00;99.90
35559;DHT22;21661;50.794;-1.066;2023-04-06T00:06:11;10.00;99.90
35559;DHT22;21661;50.794;-1.066;2023-04-06T00:08:37;10.00;99.90
35559;DHT22;21661;50.794;-1.066;2023-04-06T00:11:02;10.00;99.90
35559;DHT22;21661;50.794;-1.066;2023-04-06T00:13:28;10.00;99.90
35559;DHT22;21661;50.794;-1.066;2023-04-06T00:15:53;10.00;99.90
35559;DHT22;21661;50.794;-1.066;2023-04-06T00:18:19;10.00;99.90
35559;DHT22;21661;50.794;-1.066;2023-04-06T00:20:45;10.10;99.90
35559;DHT22;21661;50.794;-1.066;2023-04-06T00:23:10;10.10;99.90
35559;DHT22;21661;50.794;-1.066;2023-04-06T00:25:36;10.10;99.90
35559;DHT22;21661;50.794;-1.066;2023-04-06T00:28:01;10.10;99.90
35559;DHT22;21661;50.794;-1.066;2023-04-06T00:30:28;10.10;99.90
35559;DHT22;21661;50.794;-1.066;2023-04-06T00:32:54;10.10;99.90
35559;DHT22;21661;50.794;-1.066;2023-04-06T00:35:19;10.10;99.90
35559;DHT22;21661;50.794;-1.066;2023-04-06T00:37:46;10.00;99.90
35559;DHT22;21661;50.794;-1.066;2023-04-06T00:40:13;10.10;99.90
35559;DHT22;21661;50.794;-1.066;2023-04-06T00:42:39;10.10;99.90
35559;DHT22;21661;50.794;-1.066;2023-04-06T00:45:05;10.10;99.90
35559;DHT22;21661;50.794;-1.066;2023-04-06T00:47:30;10.10;99.90
35559;DHT22;21661;50.794;-1.066;2023-04-06T00:49:56;10.10;99.90
35559;DHT22;21661;50.794;-1.066;2023-04-06T00:52:22;10.10;99.90
35559;DHT22;21661;50.794;-1.066;2023-04-06T00:54:49;10.10;99.90
35559;DHT22;21661;50.794;-1.066;2023-04-06T00:57:15;10.10;99.90
35559;DHT22;21661;50.794;-1.066;2023-04-06T00:59:41;10.10;99.90
35559;DHT22;21661;50.794;-1.066;2023-04-06T01:02:08;10.10;99.90
35559;DHT22;21661;50.794;-1.066;2023-04-06T01:04:34;10.10;99.90
35559;DHT22;21661;50.794;-1.066;2023-04-06T01:07:00;10.10;99.90
35559;DHT22;21661;50.794;-1.066;2023-04-06T01:09:28;10.20;99.90
35559;DHT22;21661;50.794;-1.066;2023-04-06T01:11:55;10.20;99.90
35559;DHT22;21661;50.794;-1.066;2023-04-06T01:14:21;10.10;99.90
35559;DHT22;21661;50.794;-1.066;2023-04-06T01:16:47;10.10;99.90
35559;DHT22;21661;50.794;-1.066;2023-04-06T01:19:13;10.10;99.90
35559;DHT22;21661;50.794;-1.066;2023-04-06T01:21:39;10.10;99.90
35559;DHT22;21661;50.794;-1.066;2023-04-06T01:24:06;10.10;99.90
35559;DHT22;21661;50.794;-1.066;2023-04-06T01:26:33;10.10;99.90
35559;DHT22;21661;50.794;-1.066;2023-04-06T01:28:59;10.10;99.90
35559;DHT22;21661;50.794;-1.066;2023-04-06T01:31:25;10.10;99.90
35559;DHT22;21661;50.794;-1.066;2023-04-06T01:33:51;10.20;99.90
35559;DHT22;21661;50.794;-1.066;2023-04-06T01:36:17;10.20;99.90
35559;DHT22;21661;50.794;-1.066;2023-04-06T01:38:43;10.20;99.90
35559;DHT22;21661;50.794;-1.066;2023-04-06T01:41:09;10.10;99.90
35559;DHT22;21661;50.794;-1.066;2023-04-06T01:43:35;10.10;99.90
35559;DHT22;21661;50.794;-1.066;2023-04-06T01:46:01;10.10;99.90
35559;DHT22;21661;50.794;-1.066;2023-04-06T01:48:27;10.10;99.90
35559;DHT22;21661;50.794;-1.066;2023-04-06T01:50:53;10.10;99.90
35559;DHT22;21661;50.794;-1.066;2023-04-06T01:53:19;10.10;99.90
35559;DHT22;21661;50.794;-1.066;2023-04-06T01:55:44;10.20;99.90
35559;DHT22;21661;50.794;-1.066;2023-04-06T01:58:10;10.10;99.90
35559;DHT22;21661;50.794;-1.066;2023-04-06T02:00:36;10.10;99.90
35559;DHT22;21661;50.794;-1.066;2023-04-06T02:03:02;10.20;99.90
35559;DHT22;21661;50.794;-1.066;2023-04-06T02:05:30;10.20;99.90
35559;DHT22;21661;50.794;-1.066;2023-04-06T02:07:56;10.20;99.90
35559;DHT22;21661;50.794;-1.066;2023-04-06T02:10:22;10.20;99.90
35559;DHT22;21661;50.794;-1.066;2023-04-06T02:12:48;10.20;99.90
35559;DHT22;21661;50.794;-1.066;2023-04-06T02:15:14;10.20;99.90
35559;DHT22;21661;50.794;-1.066;2023-04-06T02:17:40;10.30;99.90
35559;DHT22;21661;50.794;-1.066;2023-04-06T02:20:06;10.20;99.90
35559;DHT22;21661;50.794;-1.066;2023-04-06T02:22:32;10.30;99.90
35559;DHT22;21661;50.794;-1.066;2023-04-06T02:24:57;10.30;99.90
35559;DHT22;21661;50.794;-1.066;2023-04-06T02:27:23;10.30;99.90
35559;DHT22;21661;50.794;-1.066;2023-04-06T02:29:49;10.30;99.90
35559;DHT22;21661;50.794;-1.066;2023-04-06T02:32:15;10.30;99.90
35559;DHT22;21661;50.794;-1.066;2023-04-06T02:34:41;10.30;99.90
35559;DHT22;21661;50.794;-1.066;2023-04-06T02:37:06;10.30;99.90
35559;DHT22;21661;50.794;-1.066;2023-04-06T02:39:32;10.30;99.90
35559;DHT22;21661;50.794;-1.066;2023-04-06T02:41:57;10.30;99.90
35559;DHT22;21661;50.794;-1.066;2023-04-06T02:44:23;10.30;99.90
35559;DHT22;21661;50.794;-1.066;2023-04-06T02:46:48;10.30;99.90
35559;DHT22;21661;50.794;-1.066;2023-04-06T02:49:14;10.40;99.90
35559;DHT22;21661;50.794;-1.066;2023-04-06T02:51:40;10.40;99.90
35559;DHT22;21661;50.794;-1.066;2023-04-06T02:54:05;10.40;99.90
35559;DHT22;21661;50.794;-1.066;2023-04-06T02:56:31;10.40;99.90
35559;DHT22;21661;50.794;-1.066;2023-04-06T02:58:56;10.40;99.90
35559;DHT22;21661;50.794;-1.066;2023-04-06T03:01:22;10.40;99.90
35559;DHT22;21661;50.794;-1.066;2023-04-06T03:03:48;10.40;99.90
35559;DHT22;21661;50.794;-1.066;2023-04-06T03:06:14;10.40;99.90
35559;DHT22;21661;50.794;-1.066;2023-04-06T03:08:39;10.40;99.90
35559;DHT22;21661;50.794;-1.066;2023-04-06T03:11:05;10.40;99.90
35559;DHT22;21661;50.794;-1.066;2023-04-06T03:13:30;10.40;99.90
35559;DHT22;21661;50.794;-1.066;2023-04-06T03:15:56;10.40;99.90
35559;DHT22;21661;50.794;-1.066;2023-04-06T03:18:23;10.50;99.90
35559;DHT22;21661;50.794;-1.066;2023-04-06T03:20:48;10.50;99.90
35559;DHT22;21661;50.794;-1.066;2023-04-06T03:23:14;10.50;99.90
35559;DHT22;21661;50.794;-1.066;2023-04-06T03:25:40;10.50;99.90
35559;DHT22;21661;50.794;-1.066;2023-04-06T03:28:06;10.50;99.90
35559;DHT22;21661;50.794;-1.066;2023-04-06T03:30:31;10.40;99.90
35559;DHT22;21661;50.794;-1.066;2023-04-06T03:32:57;10.40;99.90
35559;DHT22;21661;50.794;-1.066;2023-04-06T03:35:22;10.40;99.90
35559;DHT22;21661;50.794;-1.066;2023-04-06T03:37:48;10.50;99.90
35559;DHT22;21661;50.794;-1.066;2023-04-06T03:40:14;10.50;99.90
35559;DHT22;21661;50.794;-1.066;2023-04-06T03:42:39;10.50;99.90
35559;DHT22;21661;50.794;-1.066;2023-04-06T03:45:05;10.50;99.90
35559;DHT22;21661;50.794;-1.066;2023-04-06T03:47:31;10.50;99.90
35559;DHT22;21661;50.794;-1.066;2023-04-06T03:49:56;10.50;99.90
35559;DHT22;21661;50.794;-1.066;2023-04-06T03:52:22;10.50;99.90
35559;DHT22;21661;50.794;-1.066;2023-04-06T03:54:48;10.50;99.90
35559;DHT22;21661;50.794;-1.066;2023-04-06T03:57:14;10.50;99.90
35559;DHT22;21661;50.794;-1.066;2023-04-06T03:59:40;10.50;99.90
35559;DHT22;21661;50.794;-1.066;2023-04-06T04:02:05;10.50;99.90
35559;DHT22;21661;50.794;-1.066;2023-04-06T04:04:31;10.50;99.90
35559;DHT22;21661;50.794;-1.066;2023-04-06T04:06:56;10.50;99.90
35559;DHT22;21661;50.794;-1.066;2023-04-06T04:09:22;10.60;99.90
35559;DHT22;21661;50.794;-1.066;2023-04-06T04:11:48;10.60;99.90
35559;DHT22;21661;50.794;-1.066;2023-04-06T04:14:13;10.50;99.90
35559;DHT22;21661;50.794;-1.066;2023-04-06T04:16:39;10.60;99.90
35559;DHT22;21661;50.794;-1.066;2023-04-06T04:19:06;10.60;99.90
35559;DHT22;21661;50.794;-1.066;2023-04-06T04:21:32;10.60;99.90
35559;DHT22;21661;50.794;-1.066;2023-04-06T04:23:57;10.60;99.90
35559;DHT22;21661;50.794;-1.066;2023-04-06T04:26:23;10.50;99.90
35559;DHT22;21661;50.794;-1.066;2023-04-06T04:28:48;10.60;99.90
35559;DHT22;21661;50.794;-1.066;2023-04-06T04:31:14;10.60;99.90
35559;DHT22;21661;50.794;-1.066;2023-04-06T04:33:40;10.60;99.90
35559;DHT22;21661;50.794;-1.066;2023-04-06T04:36:05;10.60;99.90
35559;DHT22;21661;50.794;-1.066;2023-04-06T04:38:31;10.60;99.90
35559;DHT22;21661;50.794;-1.066;2023-04-06T04:40:57;10.60;99.90
35559;DHT22;21661;50.794;-1.066;2023-04-06T04:43:22;10.60;99.90
35559;DHT22;21661;50.794;-1.066;2023-04-06T04:45:48;10.70;99.90
35559;DHT22;21661;50.794;-1.066;2023-04-06T04:48:13;10.60;99.90
35559;DHT22;21661;50.794;-1.066;2023-04-06T04:50:39;10.60;99.90
35559;DHT22;21661;50.794;-1.066;2023-04-06T04:53:05;10.70;99.90
35559;DHT22;21661;50.794;-1.066;2023-04-06T04:55:31;10.70;99.90
35559;DHT22;21661;50.794;-1.066;2023-04-06T04:57:57;10.70;99.90
35559;DHT22;21661;50.794;-1.066;2023-04-06T05:00:23;10.70;99.90
35559;DHT22;21661;50.794;-1.066;2023-04-06T05:02:48;10.70;99.90
35559;DHT22;21661;50.794;-1.066;2023-04-06T05:05:14;10.70;99.90
35559;DHT22;21661;50.794;-1.066;2023-04-06T05:07:40;10.70;99.90
35559;DHT22;21661;50.794;-1.066;2023-04-06T05:10:06;10.70;99.90
35559;DHT22;21661;50.794;-1.066;2023-04-06T05:12:31;10.70;99.90
35559;DHT22;21661;50.794;-1.066;2023-04-06T05:14:57;10.70;99.90
35559;DHT22;21661;50.794;-1.066;2023-04-06T05:17:23;10.70;99.90
35559;DHT22;21661;50.794;-1.066;2023-04-06T05:19:48;10.70;99.90
35559;DHT22;21661;50.794;-1.066;2023-04-06T05:22:14;10.70;99.90
35559;DHT22;21661;50.794;-1.066;2023-04-06T05:24:43;10.70;99.90
35559;DHT22;21661;50.794;-1.066;2023-04-06T05:27:08;10.80;99.90
35559;DHT22;21661;50.794;-1.066;2023-04-06T05:29:34;10.70;99.90
35559;DHT22;21661;50.794;-1.066;2023-04-06T05:32:00;10.70;99.90
35559;DHT22;21661;50.794;-1.066;2023-04-06T05:34:26;10.80;99.90
35559;DHT22;21661;50.794;-1.066;2023-04-06T05:36:51;10.70;99.90
35559;DHT22;21661;50.794;-1.066;2023-04-06T05:39:17;10.70;99.90
35559;DHT22;21661;50.794;-1.066;2023-04-06T05:41:43;10.70;99.90
35559;DHT22;21661;50.794;-1.066;2023-04-06T05:44:08;10.70;99.90
35559;DHT22;21661;50.794;-1.066;2023-04-06T05:46:34;10.80;99.90
35559;DHT22;21661;50.794;-1.066;2023-04-06T05:48:59;10.80;99.90
35559;DHT22;21661;50.794;-1.066;2023-04-06T05:51:25;10.80;99.90
35559;DHT22;21661;50.794;-1.066;2023-04-06T05:53:52;10.70;99.90
35559;DHT22;21661;50.794;-1.066;2023-04-06T05:56:17;10.70;99.90
35559;DHT22;21661;50.794;-1.066;2023-04-06T05:58:43;10.80;99.90
35559;DHT22;21661;50.794;-1.066;2023-04-06T06:01:08;10.80;99.90
35559;DHT22;21661;50.794;-1.066;2023-04-06T06:03:35;10.70;99.90
35559;DHT22;21661;50.794;-1.066;2023-04-06T06:06:01;10.70;99.90
35559;DHT22;21661;50.794;-1.066;2023-04-06T06:08:27;10.70;99.90
35559;DHT22;21661;50.794;-1.066;2023-04-06T06:10:53;10.70;99.90
35559;DHT22;21661;50.794;-1.066;2023-04-06T06:13:19;10.70;99.90
35559;DHT22;21661;50.794;-1.066;2023-04-06T06:15:45;10.70;99.90
35559;DHT22;21661;50.794;-1.066;2023-04-06T06:18:10;10.60;99.90
35559;DHT22;21661;50.794;-1.066;2023-04-06T06:20:36;10.60;99.90
35559;DHT22;21661;50.794;-1.066;2023-04-06T06:23:01;10.60;99.90
35559;DHT22;21661;50.794;-1.066;2023-04-06T06:25:27;10.70;99.90
35559;DHT22;21661;50.794;-1.066;2023-04-06T06:27:56;10.60;99.90
35559;DHT22;21661;50.794;-1.066;2023-04-06T06:30:22;10.70;99.90
35559;DHT22;21661;50.794;-1.066;2023-04-06T06:32:47;10.60;99.90
35559;DHT22;21661;50.794;-1.066;2023-04-06T06:35:13;10.60;99.90
35559;DHT22;21661;50.794;-1.066;2023-04-06T06:37:39;10.60;99.90
35559;DHT22;21661;50.794;-1.066;2023-04-06T06:40:05;10.60;99.90
35559;DHT22;21661;50.794;-1.066;2023-04-06T06:42:31;10.50;99.90
35559;DHT22;21661;50.794;-1.066;2023-04-06T06:44:57;10.50;99.90
35559;DHT22;21661;50.794;-1.066;2023-04-06T06:47:22;10.50;99.90
35559;DHT22;21661;50.794;-1.066;2023-04-06T06:49:48;10.60;99.90
35559;DHT22;21661;50.794;-1.066;2023-04-06T06:52:13;10.50;99.90
35559;DHT22;21661;50.794;-1.066;2023-04-06T06:54:39;10.50;99.90
35559;DHT22;21661;50.794;-1.066;2023-04-06T06:57:05;10.50;99.90
35559;DHT22;21661;50.794;-1.066;2023-04-06T06:59:31;10.50;99.90
35559;DHT22;21661;50.794;-1.066;2023-04-06T07:01:56;10.40;99.90
35559;DHT22;21661;50.794;-1.066;2023-04-06T07:04:23;10.40;99.90
35559;DHT22;21661;50.794;-1.066;2023-04-06T07:06:48;10.40;99.90
35559;DHT22;21661;50.794;-1.066;2023-04-06T07:09:14;10.40;99.90
35559;DHT22;21661;50.794;-1.066;2023-04-06T07:11:40;10.40;99.90
35559;DHT22;21661;50.794;-1.066;2023-04-06T07:14:05;10.40;99.90
35559;DHT22;21661;50.794;-1.066;2023-04-06T07:16:31;10.40;99.90
35559;DHT22;21661;50.794;-1.066;2023-04-06T07:18:56;10.50;99.90
35559;DHT22;21661;50.794;-1.066;2023-04-06T07:21:22;10.50;99.90
35559;DHT22;21661;50.794;-1.066;2023-04-06T07:23:48;10.50;99.90
35559;DHT22;21661;50.794;-1.066;2023-04-06T07:26:14;10.60;99.90
35559;DHT22;21661;50.794;-1.066;2023-04-06T07:28:39;10.70;99.90
35559;DHT22;21661;50.794;-1.066;2023-04-06T07:31:05;10.70;99.90
35559;DHT22;21661;50.794;-1.066;2023-04-06T07:33:31;10.70;99.90
35559;DHT22;21661;50.794;-1.066;2023-04-06T07:35:56;10.70;99.90
35559;DHT22;21661;50.794;-1.066;2023-04-06T07:38:24;10.70;99.90
35559;DHT22;21661;50.794;-1.066;2023-04-06T07:40:49;10.70;99.90
35559;DHT22;21661;50.794;-1.066;2023-04-06T07:43:15;10.70;99.90
35559;DHT22;21661;50.794;-1.066;2023-04-06T07:45:41;10.70;99.90
35559;DHT22;21661;50.794;-1.066;2023-04-06T07:48:07;10.70;99.90
35559;DHT22;21661;50.794;-1.066;2023-04-06T07:50:33;10.70;99.90
35559;DHT22;21661;50.794;-1.066;2023-04-06T07:52:58;10.70;99.90
35559;DHT22;21661;50.794;-1.066;2023-04-06T07:55:25;10.70;99.90
35559;DHT22;21661;50.794;-1.066;2023-04-06T07:57:50;10.80;99.90
35559;DHT22;21661;50.794;-1.066;2023-04-06T08:00:16;10.80;99.90
35559;DHT22;21661;50.794;-1.066;2023-04-06T08:02:42;10.90;99.90
35559;DHT22;21661;50.794;-1.066;2023-04-06T08:05:08;11.10;99.90
35559;DHT22;21661;50.794;-1.066;2023-04-06T08:07:34;11.10;99.90
35559;DHT22;21661;50.794;-1.066;2023-04-06T08:09:59;11.20;99.90
35559;DHT22;21661;50.794;-1.066;2023-04-06T08:12:25;11.20;99.90
35559;DHT22;21661;50.794;-1.066;2023-04-06T08:14:51;11.30;99.90
35559;DHT22;21661;50.794;-1.066;2023-04-06T08:17:16;11.30;99.90
35559;DHT22;21661;50.794;-1.066;2023-04-06T08:19:43;11.20;99.90
35559;DHT22;21661;50.794;-1.066;2023-04-06T08:22:09;11.20;99.90
35559;DHT22;21661;50.794;-1.066;2023-04-06T08:24:35;11.20;99.90
35559;DHT22;21661;50.794;-1.066;2023-04-06T08:27:01;11.20;99.90
35559;DHT22;21661;50.794;-1.066;2023-04-06T08:29:26;11.30;99.90
35559;DHT22;21661;50.794;-1.066;2023-04-06T08:31:52;11.30;99.90
35559;DHT22;21661;50.794;-1.066;2023-04-06T08:34:18;11.30;99.90
35559;DHT22;21661;50.794;-1.066;2023-04-06T08:36:43;11.30;99.90
35559;DHT22;21661;50.794;-1.066;2023-04-06T08:39:10;11.30;99.90
35559;DHT22;21661;50.794;-1.066;2023-04-06T08:41:36;11.30;99.90
35559;DHT22;21661;50.794;-1.066;2023-04-06T08:44:02;11.30;99.90
35559;DHT22;21661;50.794;-1.066;2023-04-06T08:46:29;11.40;99.90
35559;DHT22;21661;50.794;-1.066;2023-04-06T08:49:02;11.40;99.90
35559;DHT22;21661;50.794;-1.066;2023-04-06T08:51:31;11.40;99.90
35559;DHT22;21661;50.794;-1.066;2023-04-06T08:53:58;11.40;99.90
35559;DHT22;21661;50.794;-1.066;2023-04-06T08:56:25;11.40;99.90
35559;DHT22;21661;50.794;-1.066;2023-04-06T08:58:53;11.40;99.90
35559;DHT22;21661;50.794;-1.066;2023-04-06T09:01:27;11.50;99.90
35559;DHT22;21661;50.794;-1.066;2023-04-06T09:03:58;11.50;99.90
35559;DHT22;21661;50.794;-1.066;2023-04-06T09:06:25;11.60;99.90
35559;DHT22;21661;50.794;-1.066;2023-04-06T09:08:53;11.60;99.90
35559;DHT22;21661;50.794;-1.066;2023-04-06T09:11:20;11.80;99.90
35559;DHT22;21661;50.794;-1.066;2023-04-06T09:13:53;11.80;99.90
35559;DHT22;21661;50.794;-1.066;2023-04-06T09:16:20;11.90;99.90
35559;DHT22;21661;50.794;-1.066;2023-04-06T09:18:47;12.00;99.90
35559;DHT22;21661;50.794;-1.066;2023-04-06T09:21:13;12.10;99.90
35559;DHT22;21661;50.794;-1.066;2023-04-06T09:23:41;12.10;99.90
35559;DHT22;21661;50.794;-1.066;2023-04-06T09:26:11;12.10;99.90
35559;DHT22;21661;50.794;-1.066;2023-04-06T09:31:15;12.10;99.90
35559;DHT22;21661;50.794;-1.066;2023-04-06T09:33:43;12.20;99.90
35559;DHT22;21661;50.794;-1.066;2023-04-06T09:36:09;12.20;99.90
35559;DHT22;21661;50.794;-1.066;2023-04-06T09:38:50;12.30;99.90
35559;DHT22;21661;50.794;-1.066;2023-04-06T09:41:23;12.40;99.90
35559;DHT22;21661;50.794;-1.066;2023-04-06T09:43:50;12.50;99.90
35559;DHT22;21661;50.794;-1.066;2023-04-06T09:46:17;12.60;99.90
35559;DHT22;21661;50.794;-1.066;2023-04-06T09:48:46;12.60;99.90
35559;DHT22;21661;50.794;-1.066;2023-04-06T09:51:14;12.60;99.90
35559;DHT22;21661;50.794;-1.066;2023-04-06T09:53:42;12.70;99.90
35559;DHT22;21661;50.794;-1.066;2023-04-06T09:56:12;12.80;99.90
35559;DHT22;21661;50.794;-1.066;2023-04-06T09:58:43;12.90;99.90
35559;DHT22;21661;50.794;-1.066;2023-04-06T10:01:14;13.00;99.90
35559;DHT22;21661;50.794;-1.066;2023-04-06T10:06:13;13.10;99.90
35559;DHT22;21661;50.794;-1.066;2023-04-06T10:08:40;13.10;99.90
35559;DHT22;21661;50.794;-1.066;2023-04-06T10:11:09;13.20;99.90
35559;DHT22;21661;50.794;-1.066;2023-04-06T10:13:36;13.20;99.90
35559;DHT22;21661;50.794;-1.066;2023-04-06T10:16:02;13.20;99.90
35559;DHT22;21661;50.794;-1.066;2023-04-06T10:18:28;13.10;99.90
35559;DHT22;21661;50.794;-1.066;2023-04-06T10:20:57;13.10;99.90
35559;DHT22;21661;50.794;-1.066;2023-04-06T10:26:03;13.20;99.90
35559;DHT22;21661;50.794;-1.066;2023-04-06T10:28:34;13.20;99.90
35559;DHT22;21661;50.794;-1.066;2023-04-06T10:31:04;13.20;99.90
35559;DHT22;21661;50.794;-1.066;2023-04-06T10:33:29;13.20;99.90
35559;DHT22;21661;50.794;-1.066;2023-04-06T10:35:55;13.30;99.90
35559;DHT22;21661;50.794;-1.066;2023-04-06T10:38:21;13.40;99.90
35559;DHT22;21661;50.794;-1.066;2023-04-06T10:41:04;13.40;99.90
35559;DHT22;21661;50.794;-1.066;2023-04-06T10:43:33;13.50;99.90
35559;DHT22;21661;50.794;-1.066;2023-04-06T10:46:00;13.60;99.90
35559;DHT22;21661;50.794;-1.066;2023-04-06T10:51:17;13.50;99.90
35559;DHT22;21661;50.794;-1.066;2023-04-06T10:53:47;13.50;99.90
35559;DHT22;21661;50.794;-1.066;2023-04-06T10:56:15;13.40;99.90
35559;DHT22;21661;50.794;-1.066;2023-04-06T10:58:59;13.40;99.90
35559;DHT22;21661;50.794;-1.066;2023-04-06T11:01:25;13.50;99.90
35559;DHT22;21661;50.794;-1.066;2023-04-06T11:03:55;13.70;99.90
35559;DHT22;21661;50.794;-1.066;2023-04-06T11:06:28;13.70;99.90
35559;DHT22;21661;50.794;-1.066;2023-04-06T11:08:56;13.80;99.90
35559;DHT22;21661;50.794;-1.066;2023-04-06T11:11:24;13.90;99.90
35559;DHT22;21661;50.794;-1.066;2023-04-06T11:13:59;13.90;99.90
35559;DHT22;21661;50.794;-1.066;2023-04-06T11:16:27;14.10;99.90
35559;DHT22;21661;50.794;-1.066;2023-04-06T11:21:38;14.30;99.90
35559;DHT22;21661;50.794;-1.066;2023-04-06T11:24:18;14.30;99.90
35559;DHT22;21661;50.794;-1.066;2023-04-06T11:29:18;14.40;99.90
35559;DHT22;21661;50.794;-1.066;2023-04-06T11:31:49;14.50;99.90
35559;DHT22;21661;50.794;-1.066;2023-04-06T11:34:23;14.50;99.90
35559;DHT22;21661;50.794;-1.066;2023-04-06T11:37:02;14.60;99.90
35559;DHT22;21661;50.794;-1.066;2023-04-06T11:39:31;14.70;99.90
35559;DHT22;21661;50.794;-1.066;2023-04-06T11:42:01;14.80;99.90
35559;DHT22;21661;50.794;-1.066;2023-04-06T11:44:36;14.90;99.90
35559;DHT22;21661;50.794;-1.066;2023-04-06T11:47:05;14.90;99.90
35559;DHT22;21661;50.794;-1.066;2023-04-06T11:49:32;15.00;99.90
35559;DHT22;21661;50.794;-1.066;2023-04-06T11:52:01;15.00;99.90
35559;DHT22;21661;50.794;-1.066;2023-04-06T11:54:34;15.10;99.90
35559;DHT22;21661;50.794;-1.066;2023-04-06T11:57:00;15.10;99.90
35559;DHT22;21661;50.794;-1.066;2023-04-06T11:59:27;15.10;99.90
35559;DHT22;21661;50.794;-1.066;2023-04-06T12:01:52;15.10;99.90
35559;DHT22;21661;50.794;-1.066;2023-04-06T12:04:19;15.10;99.90
35559;DHT22;21661;50.794;-1.066;2023-04-06T12:06:44;15.10;99.90
35559;DHT22;21661;50.794;-1.066;2023-04-06T12:09:10;15.00;99.90
35559;DHT22;21661;50.794;-1.066;2023-04-06T12:11:36;15.00;99.90
35559;DHT22;21661;50.794;-1.066;2023-04-06T12:14:01;14.90;99.90
35559;DHT22;21661;50.794;-1.066;2023-04-06T12:16:30;14.80;99.90
35559;DHT22;21661;50.794;-1.066;2023-04-06T12:18:56;14.80;99.90
35559;DHT22;21661;50.794;-1.066;2023-04-06T12:21:21;14.80;99.90
35559;DHT22;21661;50.794;-1.066;2023-04-06T12:23:47;15.00;99.90
35559;DHT22;21661;50.794;-1.066;2023-04-06T12:26:12;15.10;99.90
35559;DHT22;21661;50.794;-1.066;2023-04-06T12:28:38;15.20;99.90
35559;DHT22;21661;50.794;-1.066;2023-04-06T12:31:04;15.30;99.90
35559;DHT22;21661;50.794;-1.066;2023-04-06T12:33:29;15.40;99.90
35559;DHT22;21661;50.794;-1.066;2023-04-06T12:35:55;15.40;99.90
35559;DHT22;21661;50.794;-1.066;2023-04-06T12:38:20;15.40;99.90
35559;DHT22;21661;50.794;-1.066;2023-04-06T12:40:46;15.20;99.90
35559;DHT22;21661;50.794;-1.066;2023-04-06T12:43:12;15.10;99.90
35559;DHT22;21661;50.794;-1.066;2023-04-06T12:45:39;14.80;99.90
35559;DHT22;21661;50.794;-1.066;2023-04-06T12:48:05;14.50;99.90
35559;DHT22;21661;50.794;-1.066;2023-04-06T12:50:31;14.40;99.90
35559;DHT22;21661;50.794;-1.066;2023-04-06T12:52:57;14.20;99.90
35559;DHT22;21661;50.794;-1.066;2023-04-06T12:55:22;14.10;99.90
35559;DHT22;21661;50.794;-1.066;2023-04-06T12:57:48;13.90;99.90
35559;DHT22;21661;50.794;-1.066;2023-04-06T13:00:14;13.90;99.90
35559;DHT22;21661;50.794;-1.066;2023-04-06T13:02:40;14.00;99.90
35559;DHT22;21661;50.794;-1.066;2023-04-06T13:05:12;14.20;99.90
35559;DHT22;21661;50.794;-1.066;2023-04-06T13:07:38;14.30;99.90
35559;DHT22;21661;50.794;-1.066;2023-04-06T13:10:03;14.50;99.90
35559;DHT22;21661;50.794;-1.066;2023-04-06T13:12:29;14.70;99.90
35559;DHT22;21661;50.794;-1.066;2023-04-06T13:14:55;14.90;99.90
35559;DHT22;21661;50.794;-1.066;2023-04-06T13:17:21;15.00;99.90
35559;DHT22;21661;50.794;-1.066;2023-04-06T13:19:47;15.10;99.90
35559;DHT22;21661;50.794;-1.066;2023-04-06T13:22:13;15.30;99.90
35559;DHT22;21661;50.794;-1.066;2023-04-06T13:24:39;15.50;99.90
35559;DHT22;21661;50.794;-1.066;2023-04-06T13:27:04;15.70;99.90
35559;DHT22;21661;50.794;-1.066;2023-04-06T13:29:30;15.80;99.90
35559;DHT22;21661;50.794;-1.066;2023-04-06T13:31:56;16.00;99.90
35559;DHT22;21661;50.794;-1.066;2023-04-06T13:34:21;16.00;99.90
35559;DHT22;21661;50.794;-1.066;2023-04-06T13:36:47;15.70;99.90
35559;DHT22;21661;50.794;-1.066;2023-04-06T13:39:13;15.60;99.90
35559;DHT22;21661;50.794;-1.066;2023-04-06T13:41:38;15.60;99.90
35559;DHT22;21661;50.794;-1.066;2023-04-06T13:44:05;15.60;99.90
35559;DHT22;21661;50.794;-1.066;2023-04-06T13:46:31;15.50;99.90
35559;DHT22;21661;50.794;-1.066;2023-04-06T13:48:57;15.50;99.90
35559;DHT22;21661;50.794;-1.066;2023-04-06T13:51:23;15.50;99.90
35559;DHT22;21661;50.794;-1.066;2023-04-06T13:53:48;15.50;99.90
35559;DHT22;21661;50.794;-1.066;2023-04-06T13:56:17;15.60;99.90
35559;DHT22;21661;50.794;-1.066;2023-04-06T13:58:43;15.70;99.90
35559;DHT22;21661;50.794;-1.066;2023-04-06T14:01:09;15.70;99.90
35559;DHT22;21661;50.794;-1.066;2023-04-06T14:03:35;15.90;99.90
35559;DHT22;21661;50.794;-1.066;2023-04-06T14:06:09;15.90;99.90
35559;DHT22;21661;50.794;-1.066;2023-04-06T14:08:35;16.00;99.90
35559;DHT22;21661;50.794;-1.066;2023-04-06T14:11:00;15.90;99.90
35559;DHT22;21661;50.794;-1.066;2023-04-06T14:13:26;15.70;99.90
35559;DHT22;21661;50.794;-1.066;2023-04-06T14:15:54;15.60;99.90
35559;DHT22;21661;50.794;-1.066;2023-04-06T14:18:22;15.30;99.90
35559;DHT22;21661;50.794;-1.066;2023-04-06T14:20:55;15.10;99.90
35559;DHT22;21661;50.794;-1.066;2023-04-06T14:23:21;15.10;99.90
35559;DHT22;21661;50.794;-1.066;2023-04-06T14:25:47;15.10;99.90
35559;DHT22;21661;50.794;-1.066;2023-04-06T14:28:12;15.40;99.90
35559;DHT22;21661;50.794;-1.066;2023-04-06T14:30:38;15.40;99.90
35559;DHT22;21661;50.794;-1.066;2023-04-06T14:33:04;15.40;99.90
35559;DHT22;21661;50.794;-1.066;2023-04-06T14:35:29;15.20;99.90
35559;DHT22;21661;50.794;-1.066;2023-04-06T14:37:57;15.20;99.90
35559;DHT22;21661;50.794;-1.066;2023-04-06T14:40:24;15.30;99.90
35559;DHT22;21661;50.794;-1.066;2023-04-06T14:42:50;15.50;99.90
35559;DHT22;21661;50.794;-1.066;2023-04-06T14:45:17;15.60;99.90
35559;DHT22;21661;50.794;-1.066;2023-04-06T14:47:44;15.60;99.90
35559;DHT22;21661;50.794;-1.066;2023-04-06T14:50:10;15.60;99.90
35559;DHT22;21661;50.794;-1.066;2023-04-06T14:52:36;15.70;99.90
35559;DHT22;21661;50.794;-1.066;2023-04-06T14:55:02;15.80;99.90
35559;DHT22;21661;50.794;-1.066;2023-04-06T14:57:29;15.80;99.90
35559;DHT22;21661;50.794;-1.066;2023-04-06T14:59:54;15.60;99.90
35559;DHT22;21661;50.794;-1.066;2023-04-06T15:02:20;15.40;99.90
35559;DHT22;21661;50.794;-1.066;2023-04-06T15:04:45;15.10;99.90
35559;DHT22;21661;50.794;-1.066;2023-04-06T15:07:11;15.00;99.90
35559;DHT22;21661;50.794;-1.066;2023-04-06T15:09:37;15.10;99.90
35559;DHT22;21661;50.794;-1.066;2023-04-06T15:12:02;15.30;99.90
35559;DHT22;21661;50.794;-1.066;2023-04-06T15:14:28;15.50;99.90
35559;DHT22;21661;50.794;-1.066;2023-04-06T15:16:53;15.40;99.90
35559;DHT22;21661;50.794;-1.066;2023-04-06T15:19:19;15.30;99.90
35559;DHT22;21661;50.794;-1.066;2023-04-06T15:21:45;15.20;99.90
35559;DHT22;21661;50.794;-1.066;2023-04-06T15:24:11;15.00;99.90
35559;DHT22;21661;50.794;-1.066;2023-04-06T15:26:36;14.70;99.90